Time;durP1;ratioP1;P1;durP2;ratioP2;P2;SDS_P1;SDS_P2;PMS_P1;PMS_P2;Temp;Humidity;BMP_temperature;BMP_pressure;BME280_temperature;BME280_humidity;BME280_pressure;Samples;Min_cycle;Max_cycle;Signal;HPM_P1;HPM_P2
2024/03/27 00:00:13;;;;;;;5.10;1.00;;;;;;;6.97;100.00;96847.72;4969258;28;20386;-61
2024/03/27 00:02:39;;;;;;;9.55;1.30;;;;;;;6.99;100.00;96850.84;4967334;28;20062;-60
2024/03/27 00:05:06;;;;;;;6.00;1.45;;;;;;;6.98;100.00;96843.78;4963717;28;20424;-60
2024/03/27 00:07:32;;;;;;;5.85;2.33;;;;;;;6.98;100.00;96841.81;4970591;28;20046;-60
2024/03/27 00:09:58;;;;;;;3.25;1.20;;;;;;;6.99;100.00;96845.34;4961413;28;20626;-61
2024/03/27 00:12:24;;;;;;;3.92;1.10;;;;;;;6.98;100.00;96843.78;4967112;28;20433;-60
2024/03/27 00:14:51;;;;;;;2.22;1.10;;;;;;;6.97;100.00;96839.47;4964120;28;20536;-60
2024/03/27 00:17:17;;;;;;;2.42;1.00;;;;;;;6.95;100.00;96831.66;4955227;28;20077;-61
2024/03/27 00:19:43;;;;;;;6.85;2.20;;;;;;;6.93;100.00;96833.25;4970792;28;20043;-60
2024/03/27 00:22:10;;;;;;;1.85;0.68;;;;;;;6.90;100.00;96834.09;4967276;28;20397;-61
2024/03/27 00:24:36;;;;;;;5.57;0.80;;;;;;;6.91;100.00;96832.91;4963914;28;20401;-60
2024/03/27 00:27:03;;;;;;;5.38;0.75;;;;;;;6.92;100.00;96828.94;4958493;28;20042;-60
2024/03/27 00:29:29;;;;;;;2.75;0.80;;;;;;;6.92;100.00;96828.94;4970662;28;20063;-60
2024/03/27 00:31:55;;;;;;;5.35;1.58;;;;;;;6.91;100.00;96821.91;4982105;28;20049;-60
2024/03/27 00:34:22;;;;;;;10.23;0.98;;;;;;;6.91;100.00;96828.16;4971085;28;20077;-62
2024/03/27 00:36:48;;;;;;;15.10;1.77;;;;;;;6.95;100.00;96817.13;4958249;28;20412;-60
2024/03/27 00:39:14;;;;;;;6.30;1.67;;;;;;;6.98;100.00;96813.53;4970126;28;20054;-60
2024/03/27 00:41:41;;;;;;;6.35;1.85;;;;;;;7.01;100.00;96807.22;4970304;28;20038;-60
2024/03/27 00:44:07;;;;;;;11.23;1.00;;;;;;;7.03;100.00;96813.06;4970857;28;20709;-60
2024/03/27 00:46:33;;;;;;;5.18;1.23;;;;;;;7.06;100.00;96812.25;4966264;28;20073;-60
2024/03/27 00:49:04;;;;;;;4.43;1.02;;;;;;;7.09;100.00;96808.66;4963539;28;20054;-61
2024/03/27 00:51:31;;;;;;;5.10;1.10;;;;;;;7.11;100.00;96814.50;4963290;28;20054;-61
2024/03/27 00:53:57;;;;;;;3.78;1.40;;;;;;;7.08;100.00;96815.34;4976501;28;20046;-61
2024/03/27 00:56:23;;;;;;;3.40;0.75;;;;;;;7.07;100.00;96802.81;4969605;28;20038;-60
2024/03/27 00:58:51;;;;;;;6.22;1.83;;;;;;;7.02;100.00;96806.78;4977733;28;20057;-60
2024/03/27 01:01:17;;;;;;;2.60;0.88;;;;;;;6.99;100.00;96795.88;4954502;28;20065;-60
2024/03/27 01:03:43;;;;;;;4.68;0.70;;;;;;;6.94;100.00;96799.84;4970378;28;20062;-60
2024/03/27 01:06:09;;;;;;;3.33;0.85;;;;;;;6.93;100.00;96797.53;4968087;28;20470;-60
2024/03/27 01:08:36;;;;;;;3.15;0.68;;;;;;;6.93;100.00;96792.03;4954798;28;20054;-60
2024/03/27 01:11:03;;;;;;;6.80;0.85;;;;;;;6.92;100.00;96795.94;4969533;28;20054;-61
2024/03/27 01:13:29;;;;;;;3.45;0.60;;;;;;;6.94;100.00;96791.59;4969790;28;20054;-61
2024/03/27 01:15:56;;;;;;;5.32;0.82;;;;;;;6.94;100.00;96790.81;4968742;28;20058;-60
2024/03/27 01:18:22;;;;;;;4.32;1.10;;;;;;;6.93;100.00;96781.03;4968915;28;20607;-60
2024/03/27 01:20:48;;;;;;;6.90;1.13;;;;;;;6.92;100.00;96777.50;4969779;28;20053;-60
2024/03/27 01:23:14;;;;;;;8.88;0.85;;;;;;;6.91;100.00;96772.41;4969269;28;20112;-60
2024/03/27 01:25:41;;;;;;;5.93;0.82;;;;;;;6.90;100.00;96776.34;4966464;28;20059;-60
2024/03/27 01:28:07;;;;;;;7.03;1.50;;;;;;;6.89;100.00;96764.56;4963591;28;20436;-60
2024/03/27 01:30:33;;;;;;;3.05;0.98;;;;;;;6.90;100.00;96760.63;4958371;28;20046;-60
2024/03/27 01:33:00;;;;;;;10.40;1.27;;;;;;;6.91;100.00;96755.94;4969389;28;20054;-60
2024/03/27 01:35:26;;;;;;;6.63;1.52;;;;;;;6.91;100.00;96744.94;4969215;28;20046;-60
2024/03/27 01:37:52;;;;;;;1.67;0.77;;;;;;;6.90;100.00;96749.66;4956945;28;20408;-61
2024/03/27 01:40:19;;;;;;;7.32;1.83;;;;;;;6.86;100.00;96732.41;4966008;28;20768;-60
2024/03/27 01:42:46;;;;;;;2.17;0.60;;;;;;;6.84;100.00;96734.03;4965231;28;20046;-60
2024/03/27 01:45:14;;;;;;;2.15;0.35;;;;;;;6.84;100.00;96731.28;4969191;28;20054;-60
2024/03/27 01:47:40;;;;;;;7.10;1.95;;;;;;;6.83;100.00;96725.00;4968196;28;20051;-60
2024/03/27 01:50:11;;;;;;;0.95;0.85;;;;;;;6.81;100.00;96724.66;4970135;28;20046;-61
2024/03/27 01:52:39;;;;;;;2.67;1.00;;;;;;;6.80;100.00;96722.31;4980625;28;20058;-60
2024/03/27 01:55:07;;;;;;;1.95;0.88;;;;;;;6.79;100.00;96724.28;4968707;28;20491;-60
2024/03/27 01:57:34;;;;;;;4.15;1.13;;;;;;;6.80;100.00;96714.09;4966051;28;20564;-60
2024/03/27 02:00:02;;;;;;;2.28;1.08;;;;;;;6.78;100.00;96708.97;4957160;28;20058;-60
2024/03/27 02:02:29;;;;;;;2.15;1.15;;;;;;;6.78;100.00;96697.25;4968626;28;20054;-61
2024/03/27 02:04:55;;;;;;;2.53;1.08;;;;;;;6.75;100.00;96696.84;4966441;28;20047;-60
2024/03/27 02:07:23;;;;;;;3.10;1.30;;;;;;;6.74;100.00;96681.56;4969159;28;20050;-60
2024/03/27 02:09:51;;;;;;;2.75;0.90;;;;;;;6.75;100.00;96677.63;4972438;28;20051;-60
2024/03/27 02:12:17;;;;;;;2.08;1.30;;;;;;;6.74;100.00;96673.34;4972678;28;20058;-60
2024/03/27 02:14:44;;;;;;;2.95;1.52;;;;;;;6.73;100.00;96668.22;4970176;28;20051;-60
2024/03/27 02:17:10;;;;;;;3.13;1.63;;;;;;;6.70;100.00;96669.06;4972526;28;20073;-60
2024/03/27 02:19:36;;;;;;;2.70;1.58;;;;;;;6.71;100.00;96665.13;4980926;28;20046;-60
2024/03/27 02:22:03;;;;;;;4.20;1.40;;;;;;;6.67;100.00;96654.19;4969837;28;20505;-60
2024/03/27 02:24:40;;;;;;;4.45;1.55;;;;;;;6.66;100.00;96649.91;4970772;28;20057;-60
2024/03/27 02:27:06;;;;;;;4.15;1.02;;;;;;;6.63;100.00;96642.50;4972796;28;20047;-60
2024/03/27 02:29:33;;;;;;;3.97;1.38;;;;;;;6.59;100.00;96644.50;4970816;28;20051;-62
2024/03/27 02:31:59;;;;;;;3.20;1.20;;;;;;;6.56;100.00;96637.13;4972343;28;20065;-61
2024/03/27 02:34:25;;;;;;;3.58;1.20;;;;;;;6.54;100.00;96638.75;4973156;28;20046;-60
2024/03/27 02:36:51;;;;;;;6.05;1.30;;;;;;;6.51;100.00;96634.84;4972490;28;20412;-60
2024/03/27 02:39:18;;;;;;;5.28;1.65;;;;;;;6.52;100.00;96636.41;4971395;28;20039;-61
2024/03/27 02:41:45;;;;;;;4.93;1.17;;;;;;;6.53;100.00;96632.47;4973995;28;20055;-60
2024/03/27 02:44:11;;;;;;;4.82;1.40;;;;;;;6.56;100.00;96626.16;4971820;28;20049;-61
2024/03/27 02:46:37;;;;;;;5.05;1.38;;;;;;;6.59;100.00;96628.03;4972749;28;20050;-61
2024/03/27 02:49:04;;;;;;;3.63;1.45;;;;;;;6.62;100.00;96618.16;4972190;28;20062;-61
2024/03/27 02:51:30;;;;;;;4.88;1.38;;;;;;;6.63;100.00;96609.53;4972091;28;20065;-60
2024/03/27 02:53:56;;;;;;;4.45;1.27;;;;;;;6.66;100.00;96600.44;4968247;28;20705;-60
2024/03/27 02:56:22;;;;;;;5.25;1.85;;;;;;;6.68;100.00;96595.28;4971935;28;20828;-60
2024/03/27 02:58:49;;;;;;;7.15;2.45;;;;;;;6.71;100.00;96601.91;4976539;28;20726;-63
2024/03/27 03:01:15;;;;;;;10.52;3.10;;;;;;;6.73;100.00;96592.06;4987741;23;20055;-60
2024/03/27 03:03:41;;;;;;;5.97;1.15;;;;;;;6.75;100.00;96589.66;4933049;29;20598;-60
2024/03/27 03:06:07;;;;;;;9.10;1.52;;;;;;;6.79;100.00;96577.81;4933929;29;20527;-60
2024/03/27 03:08:33;;;;;;;6.95;1.35;;;;;;;6.81;100.00;96567.19;4933230;29;20504;-61
2024/03/27 03:11:00;;;;;;;11.60;1.73;;;;;;;6.83;100.00;96562.06;4933050;29;20517;-61
2024/03/27 03:13:26;;;;;;;11.05;0.90;;;;;;;6.83;100.00;96564.81;4927098;29;20050;-60
2024/03/27 03:15:52;;;;;;;4.47;0.98;;;;;;;6.83;100.00;96562.06;4932656;29;20051;-60
2024/03/27 03:18:19;;;;;;;7.68;1.38;;;;;;;6.86;100.00;96561.22;4932310;28;20046;-60
2024/03/27 03:20:45;;;;;;;3.80;1.08;;;;;;;6.87;100.00;96554.50;4930553;29;20058;-61
2024/03/27 03:23:11;;;;;;;5.28;1.42;;;;;;;6.89;100.00;96539.13;4932663;29;20059;-61
2024/03/27 03:25:37;;;;;;;9.70;2.38;;;;;;;6.89;100.00;96546.59;4932742;29;20051;-60
2024/03/27 03:28:04;;;;;;;11.35;1.40;;;;;;;6.89;100.00;96532.84;4933724;29;20058;-61
2024/03/27 03:30:30;;;;;;;5.88;1.48;;;;;;;6.88;100.00;96531.31;4937795;29;20509;-61
2024/03/27 03:32:56;;;;;;;5.28;1.70;;;;;;;6.88;100.00;96523.06;4928404;28;20449;-60
2024/03/27 03:35:25;;;;;;;6.57;1.25;;;;;;;6.88;100.00;96526.63;4933055;29;20047;-61
2024/03/27 03:37:51;;;;;;;4.20;1.25;;;;;;;6.88;100.00;96515.63;4931778;29;20047;-61
2024/03/27 03:40:17;;;;;;;4.28;0.80;;;;;;;6.89;100.00;96516.38;4928902;29;20484;-61
2024/03/27 03:42:44;;;;;;;7.60;0.88;;;;;;;6.90;100.00;96512.44;4920767;29;20047;-61
2024/03/27 03:45:10;;;;;;;4.68;1.15;;;;;;;6.89;100.00;96508.13;4932519;29;20055;-61
2024/03/27 03:47:36;;;;;;;6.30;1.15;;;;;;;6.89;100.00;96505.38;4932961;29;20051;-61
2024/03/27 03:50:03;;;;;;;7.05;0.98;;;;;;;6.89;100.00;96488.88;4926146;29;20052;-61
2024/03/27 03:52:29;;;;;;;5.60;0.88;;;;;;;6.86;100.00;96496.00;4917116;28;20049;-61
2024/03/27 03:54:55;;;;;;;7.97;1.83;;;;;;;6.84;100.00;96492.13;4932968;29;20070;-61
2024/03/27 03:57:22;;;;;;;7.80;0.90;;;;;;;6.85;100.00;96482.69;4933017;29;20431;-61
2024/03/27 03:59:50;;;;;;;7.68;0.90;;;;;;;6.85;100.00;96471.69;4916688;29;20505;-61
2024/03/27 04:02:17;;;;;;;10.93;0.85;;;;;;;6.86;100.00;96465.00;4931168;29;20059;-61
2024/03/27 04:04:43;;;;;;;7.20;1.10;;;;;;;6.87;100.00;96461.81;4932928;29;20055;-61
2024/03/27 04:07:09;;;;;;;5.57;0.93;;;;;;;6.88;100.00;96457.09;4932292;29;20054;-61
2024/03/27 04:09:35;;;;;;;7.38;1.05;;;;;;;6.90;100.00;96457.44;4931714;29;20063;-61
2024/03/27 04:12:03;;;;;;;7.85;1.30;;;;;;;6.90;100.00;96449.97;4931939;29;20047;-62
2024/03/27 04:14:29;;;;;;;5.80;1.30;;;;;;;6.93;100.00;96448.34;4932905;29;20417;-61
2024/03/27 04:16:56;;;;;;;6.85;1.00;;;;;;;6.94;100.00;96441.63;4932075;28;20047;-61
2024/03/27 04:19:22;;;;;;;10.65;1.58;;;;;;;6.96;100.00;96439.25;4932655;29;20414;-61
2024/03/27 04:21:50;;;;;;;6.50;1.17;;;;;;;6.97;100.00;96443.53;4932232;29;20115;-61
2024/03/27 04:24:17;;;;;;;6.93;1.73;;;;;;;6.98;100.00;96434.09;4921947;29;20043;-61
2024/03/27 04:26:43;;;;;;;10.13;2.40;;;;;;;6.96;100.00;96418.03;4932257;29;20752;-61
2024/03/27 04:29:09;;;;;;;10.00;1.33;;;;;;;6.97;100.00;96416.81;4912530;29;20044;-63
2024/03/27 04:31:35;;;;;;;5.15;0.93;;;;;;;6.98;100.00;96414.84;4927875;28;20088;-61
2024/03/27 04:34:01;;;;;;;12.20;2.28;;;;;;;6.98;100.00;96414.84;4932226;29;20066;-61
2024/03/27 04:36:28;;;;;;;13.25;1.38;;;;;;;6.96;100.00;96404.31;4928736;29;20044;-61
2024/03/27 04:38:54;;;;;;;10.27;1.33;;;;;;;6.96;100.00;96409.78;4922582;29;20502;-61
2024/03/27 04:41:20;;;;;;;8.15;1.50;;;;;;;6.97;100.00;96408.56;4929054;29;20725;-61
2024/03/27 04:43:46;;;;;;;7.05;1.75;;;;;;;6.97;100.00;96399.56;4922681;29;20062;-61
2024/03/27 04:46:13;;;;;;;11.55;1.50;;;;;;;6.98;100.00;96387.38;4931049;29;20043;-61
2024/03/27 04:48:39;;;;;;;7.65;0.75;;;;;;;6.96;100.00;96392.53;4916232;29;20043;-61
2024/03/27 04:51:05;;;;;;;13.18;1.48;;;;;;;6.96;100.00;96382.31;4931085;29;20059;-61
2024/03/27 04:53:31;;;;;;;7.45;1.27;;;;;;;6.97;100.00;96374.81;4931158;29;20051;-62
2024/03/27 04:55:58;;;;;;;11.70;1.48;;;;;;;6.96;100.00;96381.53;4930739;28;20051;-61
2024/03/27 04:58:24;;;;;;;8.88;1.30;;;;;;;6.99;100.00;96372.44;4921723;29;20063;-61
2024/03/27 05:00:50;;;;;;;7.15;1.20;;;;;;;7.00;100.00;96360.22;4930224;29;20050;-61
2024/03/27 05:03:18;;;;;;;6.35;1.10;;;;;;;7.00;100.00;96360.22;4930710;29;20058;-61
2024/03/27 05:05:45;;;;;;;6.57;1.05;;;;;;;7.03;100.00;96364.84;4930489;28;20050;-61
2024/03/27 05:08:13;;;;;;;10.35;1.25;;;;;;;7.04;100.00;96355.41;4931069;29;20043;-61
2024/03/27 05:10:39;;;;;;;6.55;1.40;;;;;;;7.05;100.00;96348.69;4929744;29;20043;-61
2024/03/27 05:13:05;;;;;;;13.30;2.88;;;;;;;7.04;100.00;96347.16;4915408;29;20047;-61
2024/03/27 05:15:31;;;;;;;12.20;2.08;;;;;;;7.04;100.00;96352.66;4913678;29;20051;-60
2024/03/27 05:17:58;;;;;;;7.15;0.93;;;;;;;7.02;100.00;96344.81;4931352;29;20051;-61
2024/03/27 05:20:24;;;;;;;12.13;1.50;;;;;;;6.99;100.00;96336.69;4926653;29;20528;-60
2024/03/27 05:22:51;;;;;;;6.60;1.33;;;;;;;6.97;100.00;96336.31;4923770;29;20058;-60
2024/03/27 05:25:18;;;;;;;8.13;1.38;;;;;;;6.92;100.00;96328.59;4931116;29;20047;-61
2024/03/27 05:27:44;;;;;;;5.47;1.13;;;;;;;6.86;100.00;96330.31;4923890;29;20051;-60
2024/03/27 05:30:11;;;;;;;11.02;0.90;;;;;;;6.81;100.00;96328.03;4929912;29;20054;-60
2024/03/27 05:32:38;;;;;;;9.25;1.20;;;;;;;6.77;100.00;96319.13;4921725;29;20054;-60
2024/03/27 05:35:04;;;;;;;7.05;1.27;;;;;;;6.74;100.00;96315.25;4929272;29;20051;-60
2024/03/27 05:37:30;;;;;;;8.63;0.95;;;;;;;6.72;100.00;96310.16;4927445;29;20047;-60
2024/03/27 05:39:57;;;;;;;7.22;1.00;;;;;;;6.70;100.00;96314.53;4930706;29;20050;-61
2024/03/27 05:42:23;;;;;;;12.57;1.10;;;;;;;6.68;100.00;96309.50;4925095;28;20851;-61
2024/03/27 05:44:50;;;;;;;13.07;1.10;;;;;;;6.68;100.00;96304.00;4915390;29;20047;-61
2024/03/27 05:47:16;;;;;;;10.02;1.80;;;;;;;6.65;100.00;96301.31;4931249;29;20054;-62
2024/03/27 05:49:43;;;;;;;11.13;1.55;;;;;;;6.61;100.00;96293.19;4931035;29;20062;-61
2024/03/27 05:52:09;;;;;;;6.88;1.55;;;;;;;6.60;100.00;96291.63;4916584;28;20046;-62
2024/03/27 05:54:35;;;;;;;8.75;2.35;;;;;;;6.56;100.00;96293.69;4923008;29;20809;-61
2024/03/27 05:57:01;;;;;;;9.15;1.50;;;;;;;6.53;100.00;96285.50;4923478;29;20051;-62
2024/03/27 05:59:28;;;;;;;10.80;1.98;;;;;;;6.50;100.00;96276.16;4930302;29;20059;-61
2024/03/27 06:01:54;;;;;;;9.43;1.75;;;;;;;6.47;100.00;96265.22;4914597;29;20055;-61
2024/03/27 06:04:20;;;;;;;7.20;1.38;;;;;;;6.45;100.00;96251.94;4928653;29;20058;-61
2024/03/27 06:06:46;;;;;;;6.50;1.55;;;;;;;6.40;100.00;96252.44;4929853;29;20532;-61
2024/03/27 06:09:13;;;;;;;5.45;1.02;;;;;;;6.39;100.00;96241.88;4930609;29;20062;-62
2024/03/27 06:11:39;;;;;;;7.05;1.13;;;;;;;6.33;100.00;96230.59;4925976;29;20844;-62
2024/03/27 06:14:05;;;;;;;15.00;2.47;;;;;;;6.31;100.00;96237.72;4931200;29;20426;-61
2024/03/27 06:16:31;;;;;;;8.63;1.83;;;;;;;6.31;100.00;96227.53;4930428;29;20055;-62
2024/03/27 06:18:57;;;;;;;6.50;1.13;;;;;;;6.33;100.00;96235.34;4930453;29;20055;-62
2024/03/27 06:21:24;;;;;;;5.75;0.82;;;;;;;6.34;100.00;96237.66;4919200;29;20055;-62
2024/03/27 06:23:50;;;;;;;1.98;1.08;;;;;;;6.35;100.00;96224.72;4930200;29;20054;-62
2024/03/27 06:26:16;;;;;;;5.68;1.20;;;;;;;6.37;100.00;96242.31;4930150;29;20073;-61
2024/03/27 06:28:42;;;;;;;8.38;1.23;;;;;;;6.38;100.00;96230.09;4927267;29;20058;-61
2024/03/27 06:31:09;;;;;;;10.50;1.50;;;;;;;6.40;100.00;96213.22;4919907;29;20062;-62
2024/03/27 06:33:35;;;;;;;10.38;2.60;;;;;;;6.42;100.00;96213.53;4917624;29;20055;-62
2024/03/27 06:36:01;;;;;;;9.90;1.35;;;;;;;6.42;100.00;96208.84;4930127;29;20066;-61
2024/03/27 06:38:28;;;;;;;9.07;1.35;;;;;;;6.44;100.00;96206.44;4929926;29;20059;-60
2024/03/27 06:40:57;;;;;;;11.70;2.33;;;;;;;6.45;100.00;96201.72;4919490;29;20052;-60
2024/03/27 06:43:23;;;;;;;21.50;4.88;;;;;;;6.47;100.00;96196.56;4913615;29;20611;-60
2024/03/27 06:45:52;;;;;;;15.02;3.30;;;;;;;6.47;100.00;96194.59;4921028;29;20066;-60
2024/03/27 06:48:21;;;;;;;17.95;4.88;;;;;;;6.51;100.00;96195.25;4906947;29;20043;-60
2024/03/27 06:50:53;;;;;;;26.70;4.93;;;;;;;6.55;100.00;96187.72;4929940;29;20058;-60
2024/03/27 06:53:20;;;;;;;20.73;3.22;;;;;;;6.60;100.00;96187.22;4925389;29;20424;-60
2024/03/27 06:55:46;;;;;;;27.10;5.63;;;;;;;6.63;100.00;96183.59;4933144;29;20428;-60
2024/03/27 06:58:12;;;;;;;31.02;3.50;;;;;;;6.68;100.00;96177.59;4917796;29;20050;-60
2024/03/27 07:00:40;;;;;;;17.70;4.13;;;;;;;6.74;100.00;96181.38;4926491;29;20039;-62
2024/03/27 07:03:06;;;;;;;13.98;3.58;;;;;;;6.79;100.00;96168.28;4932714;29;20413;-60
2024/03/27 07:05:34;;;;;;;14.40;3.05;;;;;;;6.83;100.00;96171.75;4933205;29;20069;-63
2024/03/27 07:08:03;;;;;;;27.13;3.15;;;;;;;6.84;100.00;96168.56;4932838;29;20047;-60
2024/03/27 07:10:29;;;;;;;15.25;2.78;;;;;;;6.87;100.00;96167.69;4933567;29;20739;-60
2024/03/27 07:12:55;;;;;;;24.73;5.32;;;;;;;6.88;100.00;96157.47;4932758;29;20047;-60
2024/03/27 07:15:22;;;;;;;16.27;3.45;;;;;;;6.91;100.00;96151.13;4932788;29;20059;-60
2024/03/27 07:17:50;;;;;;;18.13;2.88;;;;;;;6.91;100.00;96146.38;4933088;29;20059;-60
2024/03/27 07:20:16;;;;;;;16.83;3.15;;;;;;;6.93;100.00;96138.47;4933144;29;20047;-60
2024/03/27 07:22:42;;;;;;;23.00;3.40;;;;;;;6.97;100.00;96138.38;4932022;29;20043;-60
2024/03/27 07:25:09;;;;;;;24.92;3.50;;;;;;;7.00;100.00;96143.00;4932545;29;20075;-60
2024/03/27 07:27:37;;;;;;;26.23;3.60;;;;;;;7.02;100.00;96141.38;4932534;29;20055;-60
2024/03/27 07:30:03;;;;;;;12.88;2.50;;;;;;;7.03;100.00;96131.91;4932237;29;20390;-60
2024/03/27 07:32:30;;;;;;;11.75;2.67;;;;;;;7.05;100.00;96143.25;4935349;29;20606;-60
2024/03/27 07:34:56;;;;;;;15.05;2.70;;;;;;;7.03;100.00;96142.16;4931997;29;20054;-61
2024/03/27 07:37:23;;;;;;;7.97;2.10;;;;;;;7.00;100.00;96145.75;4929906;29;20074;-60
2024/03/27 07:39:49;;;;;;;7.43;1.90;;;;;;;6.97;100.00;96132.88;4914155;29;20040;-60
2024/03/27 07:42:16;;;;;;;7.25;1.55;;;;;;;6.93;100.00;96143.19;4932238;29;20055;-64
2024/03/27 07:44:42;;;;;;;4.85;1.48;;;;;;;6.91;100.00;96134.63;4942135;29;20039;-64
2024/03/27 07:47:10;;;;;;;4.78;1.10;;;;;;;6.89;100.00;96137.78;4933343;29;20509;-64
2024/03/27 07:49:45;;;;;;;9.32;1.20;;;;;;;6.90;100.00;96144.06;4919412;29;20051;-63
2024/03/27 07:52:11;;;;;;;4.10;1.02;;;;;;;6.90;100.00;96144.06;4913785;29;20606;-64
2024/03/27 07:54:38;;;;;;;4.65;1.00;;;;;;;6.93;100.00;96143.19;4913977;29;20060;-64
2024/03/27 07:57:06;;;;;;;9.32;0.98;;;;;;;6.95;100.00;96133.31;4929481;29;20498;-64
2024/03/27 07:59:33;;;;;;;2.78;1.83;;;;;;;6.98;100.00;96137.19;4933054;29;20051;-64
2024/03/27 08:02:00;;;;;;;3.70;1.30;;;;;;;6.98;100.00;96139.94;4932192;29;20086;-64
2024/03/27 08:04:26;;;;;;;8.00;1.15;;;;;;;7.00;100.00;96143.78;4932984;28;20405;-64
2024/03/27 08:06:52;;;;;;;6.57;1.70;;;;;;;7.03;100.00;96137.41;4932621;29;20509;-64
2024/03/27 08:09:18;;;;;;;17.83;4.10;;;;;;;7.06;100.00;96141.28;4937576;28;20049;-64
2024/03/27 08:11:45;;;;;;;6.90;1.55;;;;;;;7.08;100.00;96150.63;4926126;29;20652;-63
2024/03/27 08:14:11;;;;;;;2.78;0.77;;;;;;;7.10;100.00;96169.44;4932431;29;20062;-63
2024/03/27 08:16:37;;;;;;;1.98;0.30;;;;;;;7.00;100.00;96165.00;4928429;29;20597;-64
2024/03/27 08:19:04;;;;;;;0.13;0.10;;;;;;;6.89;100.00;96167.25;4930778;29;20054;-63
2024/03/27 08:21:30;;;;;;;0.40;0.10;;;;;;;6.78;100.00;96164.03;4915492;29;20053;-63
2024/03/27 08:23:57;;;;;;;0.20;0.10;;;;;;;6.67;100.00;96173.28;4926968;29;20055;-63
2024/03/27 08:26:24;;;;;;;0.38;0.17;;;;;;;6.60;100.00;96170.72;4931897;29;20043;-63
2024/03/27 08:28:51;;;;;;;0.40;0.05;;;;;;;6.58;100.00;96170.38;4932278;29;20047;-62
2024/03/27 08:31:17;;;;;;;0.10;0.10;;;;;;;6.60;100.00;96169.94;4930513;29;20050;-62
2024/03/27 08:33:44;;;;;;;0.50;0.00;;;;;;;6.58;100.00;96170.38;4941697;29;20532;-62
2024/03/27 08:36:10;;;;;;;0.20;0.20;;;;;;;6.60;100.00;96169.94;4947376;28;20082;-62
2024/03/27 08:38:37;;;;;;;0.00;0.00;;;;;;;6.59;100.00;96166.41;4930220;29;20120;-62
2024/03/27 08:41:04;;;;;;;0.20;0.13;;;;;;;6.59;100.00;96171.91;4929576;29;20051;-62
2024/03/27 08:43:30;;;;;;;0.43;0.10;;;;;;;6.60;100.00;96167.19;4933188;29;20055;-62
2024/03/27 08:45:56;;;;;;;0.05;0.05;;;;;;;6.61;100.00;96177.78;4917927;29;20722;-62
2024/03/27 08:48:23;;;;;;;3.60;0.70;;;;;;;6.64;100.00;96185.16;4928845;29;20047;-62
2024/03/27 08:50:49;;;;;;;1.90;0.10;;;;;;;6.67;100.00;96175.28;4930109;29;20500;-63
2024/03/27 08:53:16;;;;;;;0.10;0.10;;;;;;;6.70;100.00;96177.13;4931036;29;20525;-63
2024/03/27 08:55:45;;;;;;;0.50;0.10;;;;;;;6.73;100.00;96179.03;4925123;29;20402;-62
2024/03/27 08:58:12;;;;;;;0.38;0.20;;;;;;;6.76;100.00;96189.16;4928631;29;20054;-63
2024/03/27 09:00:38;;;;;;;0.52;0.17;;;;;;;6.75;100.00;96193.88;4917368;29;20047;-62
2024/03/27 09:03:06;;;;;;;0.90;0.30;;;;;;;6.73;100.00;96190.03;4909444;29;20051;-62
2024/03/27 09:05:32;;;;;;;1.52;0.10;;;;;;;6.67;100.00;96189.78;4906635;29;20511;-62
2024/03/27 09:07:59;;;;;;;0.40;0.20;;;;;;;6.66;100.00;96188.25;4921094;29;20050;-62
2024/03/27 09:10:26;;;;;;;2.05;1.10;;;;;;;6.66;100.00;96196.50;4918376;29;20056;-60
2024/03/27 09:12:52;;;;;;;1.45;0.57;;;;;;;6.68;100.00;96212.53;4905213;29;20047;-62
2024/03/27 09:15:19;;;;;;;0.90;0.75;;;;;;;6.65;100.00;96214.16;4912533;29;20048;-62
2024/03/27 09:17:45;;;;;;;0.10;0.10;;;;;;;6.64;100.00;96220.88;4910035;29;20051;-62
2024/03/27 09:20:11;;;;;;;1.75;1.27;;;;;;;6.64;100.00;96220.09;4908697;29;20066;-62
2024/03/27 09:22:37;;;;;;;0.30;0.20;;;;;;;6.63;100.00;96213.81;4908677;29;20066;-62
2024/03/27 09:25:04;;;;;;;0.20;0.13;;;;;;;6.65;100.00;96205.91;4911243;29;20051;-63
2024/03/27 09:27:33;;;;;;;0.52;0.32;;;;;;;6.66;100.00;96201.19;4910909;29;20506;-63
2024/03/27 09:29:59;;;;;;;2.08;0.60;;;;;;;6.65;100.00;96205.91;4906894;29;20055;-63
2024/03/27 09:32:25;;;;;;;0.80;0.50;;;;;;;6.66;100.00;96212.97;4910803;29;20399;-62
2024/03/27 09:34:53;;;;;;;0.95;0.50;;;;;;;6.65;100.00;96227.91;4913320;29;20418;-62
2024/03/27 09:37:19;;;;;;;3.30;0.57;;;;;;;6.65;100.00;96216.91;4910954;29;20063;-62
2024/03/27 09:39:45;;;;;;;1.25;0.50;;;;;;;6.66;100.00;96215.72;4912695;29;20556;-62
2024/03/27 09:42:12;;;;;;;0.55;0.40;;;;;;;6.70;100.00;96219.13;4912732;29;20056;-62
2024/03/27 09:44:39;;;;;;;1.08;0.45;;;;;;;6.75;100.00;96215.88;4913725;29;20446;-64
2024/03/27 09:47:08;;;;;;;1.23;0.30;;;;;;;6.80;100.00;96216.56;4913602;29;20051;-64
2024/03/27 09:49:34;;;;;;;1.08;0.20;;;;;;;6.87;100.00;96221.88;4913165;29;20060;-64
2024/03/27 09:52:03;;;;;;;2.30;0.22;;;;;;;6.96;100.00;96224.81;4916236;29;20593;-66
2024/03/27 09:54:32;;;;;;;0.90;0.45;;;;;;;7.06;100.00;96221.78;4931691;29;20744;-65
2024/03/27 09:56:59;;;;;;;3.95;0.32;;;;;;;7.16;100.00;96228.22;4913630;29;20371;-65
2024/03/27 09:59:25;;;;;;;1.83;0.80;;;;;;;7.25;100.00;96236.63;4913136;29;20405;-65
2024/03/27 10:02:05;;;;;;;2.70;0.50;;;;;;;7.45;100.00;96223.50;4920578;29;20564;-66
2024/03/27 10:04:31;;;;;;;0.40;0.20;;;;;;;7.66;100.00;96239.44;4931308;29;20417;-66
2024/03/27 10:06:58;;;;;;;1.38;0.57;;;;;;;7.87;100.00;96238.06;4929900;29;20443;-65
2024/03/27 10:09:24;;;;;;;2.17;0.25;;;;;;;7.94;100.00;96227.63;4931208;29;20395;-66
2024/03/27 10:11:51;;;;;;;23.92;3.50;;;;;;;7.96;100.00;96229.97;4931760;29;20102;-65
2024/03/27 10:14:17;;;;;;;1.08;0.30;;;;;;;8.08;100.00;96237.47;4931674;29;20621;-65
2024/03/27 10:16:44;;;;;;;3.50;0.40;;;;;;;8.32;100.00;96235.97;4934129;28;20058;-66
2024/03/27 10:19:10;;;;;;;1.88;0.50;;;;;;;8.98;100.00;96235.06;4932450;29;20051;-66
2024/03/27 10:21:37;;;;;;;3.50;1.30;;;;;;;9.61;100.00;96240.41;4931812;29;20044;-65
2024/03/27 10:24:04;;;;;;;3.80;0.40;;;;;;;9.93;99.51;96244.06;4931771;29;20421;-66
2024/03/27 10:26:31;;;;;;;1.67;0.30;;;;;;;9.68;99.28;96264.25;4931286;29;20063;-66
2024/03/27 10:28:57;;;;;;;4.38;0.60;;;;;;;9.36;99.62;96261.81;4932743;29;20043;-67
2024/03/27 10:31:25;;;;;;;2.80;0.50;;;;;;;9.14;100.00;96273.56;4934694;29;20059;-67
2024/03/27 10:33:52;;;;;;;3.05;0.50;;;;;;;9.13;100.00;96260.22;4934565;29;20051;-66
2024/03/27 10:36:29;;;;;;;2.22;0.70;;;;;;;9.23;100.00;96258.31;4935064;29;20051;-66
2024/03/27 10:39:00;;;;;;;4.88;0.68;;;;;;;9.42;100.00;96257.28;4934848;29;20059;-67
2024/03/27 10:41:27;;;;;;;4.50;0.88;;;;;;;9.53;100.00;96258.44;4935608;29;20140;-67
2024/03/27 10:43:57;;;;;;;3.28;0.57;;;;;;;9.49;100.00;96265.31;4935225;29;20058;-67
2024/03/27 10:46:24;;;;;;;0.90;0.43;;;;;;;9.31;99.78;96273.44;4917976;29;20051;-69
2024/03/27 10:48:53;;;;;;;3.88;0.52;;;;;;;9.16;99.98;96260.09;4936007;29;20054;-67
2024/03/27 10:51:21;;;;;;;4.07;0.45;;;;;;;9.12;99.02;96264.97;4934578;29;20075;-67
2024/03/27 10:53:49;;;;;;;2.53;0.60;;;;;;;8.93;97.77;96274.25;4947932;29;20057;-67
2024/03/27 10:56:17;;;;;;;1.40;0.52;;;;;;;8.57;96.14;96291.13;4934775;29;20039;-67
2024/03/27 10:58:44;;;;;;;2.03;0.25;;;;;;;8.15;95.21;96284.09;4931807;29;20520;-67
2024/03/27 11:01:12;;;;;;;5.40;0.73;;;;;;;7.84;95.75;96294.00;4939066;28;20133;-67
2024/03/27 11:03:41;;;;;;;0.45;0.40;;;;;;;7.60;95.83;96284.47;4951319;29;20426;-66
2024/03/27 11:06:14;;;;;;;4.47;0.30;;;;;;;7.58;97.26;96271.13;4933003;29;20050;-64
2024/03/27 11:08:42;;;;;;;5.50;0.73;;;;;;;8.13;98.96;96266.47;4933383;29;20058;-65
2024/03/27 11:11:10;;;;;;;3.38;0.68;;;;;;;8.75;97.48;96271.28;4932528;29;20406;-64
2024/03/27 11:13:36;;;;;;;2.50;0.52;;;;;;;9.12;95.95;96264.97;4930903;29;20058;-65
2024/03/27 11:16:10;;;;;;;2.20;0.80;;;;;;;9.31;95.45;96265.94;4915798;29;20058;-66
2024/03/27 11:18:36;;;;;;;4.20;0.93;;;;;;;9.39;95.29;96258.16;4938299;29;20510;-66
2024/03/27 11:21:03;;;;;;;3.20;1.05;;;;;;;9.38;95.12;96262.91;4931032;29;20584;-66
2024/03/27 11:23:33;;;;;;;7.95;0.75;;;;;;;9.38;95.10;96259.38;4930944;29;20055;-65
2024/03/27 11:26:02;;;;;;;2.92;0.40;;;;;;;9.35;95.44;96266.56;4933943;29;20056;-67
2024/03/27 11:28:28;;;;;;;7.13;0.70;;;;;;;9.16;94.66;96260.09;4933258;29;20405;-66